Flight Track Log - Related Links

Times and Time Zones

All times are in EDT time to prevent confusion due to time zone crossing. See the EXS186 flight status page for this flight to view local times or setup timezone preferences in your user account.

Time Position Orientation Groundspeed Altitude Reporting Facility
EDT Latitude Longitude Course Direction KTS MPH feet Rate Location/Type
Mon 06:23:00 AM 37.8532 -4.3519 North  Level Estimated
Mon 06:24:00 AM 37.9438 -4.3404 North  Level Estimated
Mon 06:25:00 AM 38.0344 -4.3288 North  Level Estimated
Mon 06:26:00 AM 38.1251 -4.3172 North  Level Estimated
Mon 06:27:00 AM 38.2138 -4.3059 North  Level Estimated
Mon 06:28:00 AM 38.3026 -4.2945 North  Level Estimated
Mon 06:29:00 AM 38.3913 -4.2831 North  Level Estimated
Mon 06:30:00 AM 38.4801 -4.2716 North  Level Estimated
Mon 06:31:00 AM 38.5688 -4.2601 North  Level Estimated
Mon 06:32:00 AM 38.6576 -4.2486 North  Level Estimated
Mon 06:33:00 AM 38.7463 -4.2371 North  Level Estimated
Mon 06:34:00 AM 38.8351 -4.2255 North  Level Estimated
Mon 06:35:00 AM 38.9238 -4.2139 North  Level Estimated
Mon 06:36:00 AM 39.0126 -4.2023 North  Level Estimated
Mon 06:37:00 AM 39.1013 -4.1907 North  Level Estimated
Mon 06:38:00 AM 39.1901 -4.1790 North  Level Estimated
Mon 06:39:00 AM 39.2788 -4.1673 North  Level Estimated
Mon 06:40:00 AM 39.3675 -4.1555 North  Level Estimated
Mon 06:41:00 AM 39.4563 -4.1438 North  Level Estimated
Mon 06:42:00 AM 39.5450 -4.1320 North  Level Estimated
Mon 06:43:00 AM 39.6338 -4.1201 North  Level Estimated
Mon 06:44:00 AM 39.7225 -4.1083 North  Level Estimated
Mon 06:45:00 AM 39.8112 -4.0964 North  Level Estimated
Mon 06:46:00 AM 39.9000 -4.0845 North  Level Estimated
Mon 06:47:00 AM 39.9887 -4.0725 North  Level Estimated
Mon 06:48:00 AM 40.0774 -4.0605 North  Level Estimated
Mon 06:49:00 AM 40.1662 -4.0485 North  Level Estimated
Mon 06:50:00 AM 40.2549 -4.0365 North  Level Estimated
Mon 06:51:00 AM 40.3436 -4.0244 North  Level Estimated
Mon 06:52:00 AM 40.4324 -4.0123 North  Level Estimated
Mon 06:53:00 AM 40.5211 -4.0002 North  Level Estimated
Mon 06:54:00 AM 40.6098 -3.9880 North  Level Estimated
Mon 06:55:00 AM 40.6985 -3.9758 North  Level Estimated
Mon 06:56:00 AM 40.7873 -3.9636 North  Level Estimated
Mon 06:57:00 AM 40.8760 -3.9513 North  Level Estimated
Mon 06:58:00 AM 40.9647 -3.9390 North  Level Estimated
Mon 06:59:00 AM 41.0534 -3.9266 North  Level Estimated
Mon 07:00:00 AM 41.1421 -3.9143 North  Level Estimated
Mon 07:01:00 AM 41.2309 -3.9019 North  Level Estimated
Mon 07:02:00 AM 41.3196 -3.8894 North  Level Estimated
Mon 07:03:00 AM 41.4083 -3.8770 North  Level Estimated
Mon 07:04:00 AM 41.4970 -3.8645 North  Level Estimated
Mon 07:05:00 AM 41.5857 -3.8519 North  Level Estimated
Mon 07:06:00 AM 41.6744 -3.8393 North  Level Estimated
Mon 07:07:00 AM 41.7631 -3.8267 North  Level Estimated
Mon 07:08:00 AM 41.8518 -3.8141 North  Level Estimated
Mon 07:09:00 AM 41.9405 -3.8014 North  Level Estimated
Mon 07:10:00 AM 42.0292 -3.7887 North  Level Estimated
Mon 07:11:00 AM 42.1179 -3.7760 North  Level Estimated
Mon 07:12:00 AM 42.2066 -3.7632 North  Level Estimated
Mon 07:13:00 AM 42.2953 -3.7504 North  Level Estimated
Mon 07:14:00 AM 42.3840 -3.7375 North  Level Estimated
Mon 07:15:00 AM 42.4727 -3.7246 North  Level Estimated
Mon 07:16:00 AM 42.5614 -3.7117 North  Level Estimated
Mon 07:17:00 AM 42.6501 -3.6987 North  Level Estimated
Mon 07:18:00 AM 42.7388 -3.6857 North  Level Estimated
Mon 07:19:00 AM 42.8275 -3.6727 North  Level Estimated
Mon 07:20:00 AM 42.9162 -3.6596 North  Level Estimated
Mon 07:21:00 AM 43.0049 -3.6465 North  Level Estimated
Mon 07:22:00 AM 43.0936 -3.6333 North  Level Estimated
Mon 07:23:00 AM 43.1822 -3.6201 North  Level Estimated
Mon 07:24:00 AM 43.2709 -3.6069 North  Level Estimated
Mon 07:25:00 AM 43.3596 -3.5936 North  Level Estimated
Mon 07:26:00 AM 43.4483 -3.5803 North  Level Estimated
Mon 07:27:00 AM 43.5369 -3.5670 North  Level Estimated
Mon 07:28:00 AM 43.6256 -3.5536 North  Level Estimated
Mon 07:29:00 AM 43.7143 -3.5401 North  Level Estimated
Mon 07:30:00 AM 43.8030 -3.5267 North  Level Estimated
Mon 07:31:00 AM 43.8917 -3.5132 North  Level Estimated
Mon 07:32:00 AM 43.9803 -3.4996 North  Level Estimated
Mon 07:33:00 AM 44.0690 -3.4860 North  Level Estimated
Mon 07:34:00 AM 44.1577 -3.4724 North  Level Estimated
Mon 07:35:00 AM 44.2463 -3.4587 North  Level Estimated
Mon 07:36:00 AM 44.3350 -3.4450 North  Level Estimated
Mon 07:37:00 AM 44.4236 -3.4313 North  Level Estimated
Mon 07:38:00 AM 44.5123 -3.4175 North  Level Estimated
Mon 07:39:00 AM 44.6010 -3.4037 North  Level Estimated
Mon 07:40:00 AM 44.6896 -3.3898 North  Level Estimated
Mon 07:41:00 AM 44.7783 -3.3758 North  Level Estimated
Mon 07:42:00 AM 44.8669 -3.3619 North  Level Estimated
Mon 07:43:00 AM 44.9556 -3.3479 North  Level Estimated
Mon 07:44:00 AM 45.0442 -3.3338 North  Level Estimated
Mon 07:45:00 AM 45.1329 -3.3197 North  Level Estimated
Mon 07:46:00 AM 45.2215 -3.3056 North  Level Estimated
Mon 07:47:00 AM 45.3102 -3.2914 North  Level Estimated
Mon 07:48:00 AM 45.3988 -3.2772 North  Level Estimated
Mon 07:49:00 AM 45.4875 -3.2629 North  Level Estimated
Mon 07:50:00 AM 45.5761 -3.2486 North  Level Estimated
Mon 07:51:00 AM 45.6647 -3.2343 North  Level Estimated
Mon 07:52:00 AM 45.7534 -3.2199 North  Level Estimated
Mon 07:53:00 AM 45.8420 -3.2054 North  Level Estimated
Mon 07:54:00 AM 45.9306 -3.1909 North  Level Estimated
Mon 07:55:00 AM 46.0193 -3.1764 North  Level Estimated
Mon 07:56:00 AM 46.1079 -3.1618 North  Level Estimated
Mon 07:57:00 AM 46.1965 -3.1471 North  Level Estimated
Mon 07:58:00 AM 46.2852 -3.1325 North  Level Estimated
Mon 07:59:00 AM 46.3738 -3.1177 North  Level Estimated
Mon 08:00:00 AM 46.4624 -3.1029 North  Level Estimated
Mon 08:01:00 AM 46.5510 -3.0881 North  Level Estimated
Mon 08:02:00 AM 46.6396 -3.0732 North  Level Estimated
Mon 08:03:00 AM 46.7283 -3.0583 North  Level Estimated
Mon 08:04:00 AM 46.8169 -3.0433 North  Level Estimated
Mon 08:05:00 AM 46.9055 -3.0283 North  Level Estimated
Mon 08:06:00 AM 46.9941 -3.0132 North  Level Estimated
Mon 08:07:00 AM 47.0827 -2.9981 North  Level Estimated
Mon 08:08:00 AM 47.1713 -2.9829 North  Level Estimated
Mon 08:09:00 AM 47.2599 -2.9677 North  Level Estimated
Mon 08:10:00 AM 47.3485 -2.9524 North  Level Estimated
Mon 08:11:00 AM 47.4371 -2.9371 North  Level Estimated
Mon 08:12:00 AM 47.5257 -2.9217 North  Level Estimated
Mon 08:13:00 AM 47.6143 -2.9063 North  Level Estimated
Mon 08:14:00 AM 47.7029 -2.8908 North  Level Estimated
Mon 08:15:00 AM 47.7915 -2.8753 North  Level Estimated
Mon 08:16:00 AM 47.8801 -2.8597 North  Level Estimated
Mon 08:17:00 AM 47.9687 -2.8440 North  Level Estimated
Mon 08:18:00 AM 48.0573 -2.8284 North  Level Estimated
Mon 08:19:00 AM 48.1459 -2.8126 North  Level Estimated
Mon 08:20:00 AM 48.2344 -2.7968 North  Level Estimated
Mon 08:21:00 AM 48.3230 -2.7809 North  Level Estimated
Mon 08:22:00 AM 48.4116 -2.7650 North  Level Estimated
Mon 08:23:00 AM 48.5002 -2.7490 North  Level Estimated
Mon 08:24:00 AM 48.5678 -2.7368 North  Level Estimated
Mon 08:25:00 AM 48.6564 -2.7207 North  Level Estimated
Mon 08:26:00 AM 48.7449 -2.7046 North  Level Estimated
Mon 08:27:00 AM 48.8335 -2.6884 North  Level Estimated
Mon 08:28:00 AM 48.9221 -2.6722 North  Level Estimated
Mon 08:29:00 AM 49.0106 -2.6559 North  Level Estimated
Mon 08:30:00 AM 49.0992 -2.6395 North  Level Estimated
Mon 08:31:00 AM 49.1878 -2.6231 North  Level Estimated
Mon 08:32:00 AM 49.2763 -2.6066 North  Level Estimated
Mon 08:33:00 AM 49.3649 -2.5901 North  Level Estimated
Mon 08:34:00 AM 49.4534 -2.5735 North  Level Estimated
Mon 08:35:00 AM 49.5420 -2.5569 North  Level Estimated
Mon 08:36:00 AM 49.6305 -2.5402 North  Level Estimated
Mon 08:37:00 AM 49.7190 -2.5234 North  Level Estimated
Mon 08:38:00 AM 49.8076 -2.5066 North  Level Estimated
Mon 08:39:00 AM 49.8961 -2.4897 North  Level Estimated
Mon 08:40:00 AM 49.9847 -2.4727 North  Level Estimated
Mon 08:41:00 AM 50.0732 -2.4557 North  Level Estimated
Mon 08:42:00 AM 50.1617 -2.4386 North  Level Estimated
Mon 08:43:00 AM 50.2503 -2.4214 North  Level Estimated
Mon 08:44:00 AM 50.3388 -2.4042 North  Level Estimated
Mon 08:45:00 AM 50.4273 -2.3870 North  Level Estimated
Mon 08:46:00 AM 50.5158 -2.3696 North  Level Estimated
Mon 08:47:00 AM 50.6043 -2.3522 North  Level Estimated
Mon 08:48:00 AM 50.6928 -2.3347 North  Level Estimated
Mon 08:49:00 AM 50.7814 -2.3172 North  Level Estimated
Mon 08:50:00 AM 50.8699 -2.2996 North  Level Estimated
Mon 08:51:00 AM 50.9584 -2.2819 North  Level Estimated
Mon 08:52:00 AM 51.0469 -2.2642 North  Level Estimated
Mon 08:53:00 AM 51.1354 -2.2464 North  Level Estimated
Mon 08:54:00 AM 51.2239 -2.2285 North  Level Estimated
Mon 08:55:00 AM 51.3124 -2.2106 North  Level Estimated
Mon 08:56:00 AM 51.4009 -2.1925 North  Level Estimated
Mon 08:57:00 AM 51.4894 -2.1745 North  Level Estimated
Mon 08:58:00 AM 51.5779 -2.1563 North  Level Estimated
Mon 08:59:00 AM 51.6663 -2.1381 North  Level Estimated
Mon 09:00:00 AM 51.7548 -2.1198 North  Level Estimated
Mon 09:01:00 AM 51.8433 -2.1014 North  Level Estimated
Mon 09:02:00 AM 51.9318 -2.0830 North  Level Estimated
Mon 09:03:00 AM 52.0202 -2.0645 North  Level Estimated
Mon 09:04:00 AM 52.1087 -2.0459 North  Level Estimated
Mon 09:05:00 AM 52.1972 -2.0272 North  Level Estimated
Mon 09:06:00 AM 52.2856 -2.0085 North  Level Estimated
Mon 09:07:00 AM 52.3741 -1.9897 North  Level Estimated
Mon 09:08:00 AM 52.4626 -1.9708 North  Level Estimated
Mon 09:09:00 AM 52.5510 -1.9519 North  Level Estimated
Mon 09:10:00 AM 52.6395 -1.9328 North  Level Estimated
Mon 09:11:00 AM 52.7279 -1.9137 North  Level Estimated
Mon 09:12:00 AM 52.8164 -1.8945 North  Level Estimated
Mon 09:13:00 AM 52.9048 -1.8752 North  Level Estimated
Mon 09:14:00 AM 52.9933 -1.8559 North  Level Estimated
Mon 09:15:00 AM 53.0817 -1.8365 North  Level Estimated
Mon 09:16:00 AM 53.1701 -1.8169 North  Level Estimated
Mon 09:17:00 AM 53.2585 -1.7974 North  Level Estimated
Mon 09:18:00 AM 53.3470 -1.7777 North  Level Estimated
Mon 09:19:00 AM 53.4354 -1.7579 North  Level Estimated
Mon 09:20:00 AM 53.5238 -1.7381 North  Level Estimated
Mon 09:21:00 AM 53.6122 -1.7182 North  Level Estimated
Mon 09:22:00 AM 53.7006 -1.6982 North  Level Estimated
Mon 09:23:00 AM 53.7891 -1.6781 North  Level Estimated
Mon 09:24:00 AM 53.8659 -1.6606 North  Level Estimated
Mon 09:25:00 AM 53.8659 -1.6606 169° South  Level Estimated
Mon 09:26:00 AM 53.8659 -1.6606 169° South  Level Estimated
Mon 09:27:00 AM 53.8659 -1.6606 169° South  Level Estimated
Mon 09:28:00 AM 53.8659 -1.6606 169° South  Level Estimated
Mon 09:29:00 AM 53.8659 -1.6606 169° South  Level Estimated
Mon 09:30:00 AM 53.8659 -1.6606 169° South  Level Estimated
Mon 09:31:00 AM 53.8659 -1.6606 169° South  Level Estimated
Mon 09:32:00 AM 53.8659 -1.6606 169° South  Level Estimated
Mon 09:33:00 AM 53.8659 -1.6606 169° South  Level Estimated
Mon 09:34:00 AM 53.8659 -1.6606 169° South  Level Estimated
Mon 09:35:00 AM 53.8659 -1.6606 169° South  Level Estimated
Mon 09:36:00 AM 53.8659 -1.6606 169° South  Level Estimated

Login

Don't have an account? Register now (free) for customized features, flight alerts, and more!